createdAt,value
2019-03-27T00:00:42.919Z,12.23
2019-03-27T00:02:18.783Z,10.15
2019-03-27T00:03:54.584Z,8.33
2019-03-27T00:05:30.213Z,6.30
2019-03-27T00:07:05.834Z,7.00
2019-03-27T00:08:41.787Z,10.03
2019-03-27T00:10:17.431Z,6.75
2019-03-27T00:11:53.296Z,10.63
2019-03-27T00:13:28.549Z,6.78
2019-03-27T00:15:12.904Z,6.00
2019-03-27T00:16:40.553Z,8.83
2019-03-27T00:18:15.441Z,3.72
2019-03-27T00:19:50.607Z,10.43
2019-03-27T00:21:25.508Z,6.67
2019-03-27T00:23:00.429Z,8.80
2019-03-27T00:24:35.606Z,7.65
2019-03-27T00:26:10.498Z,6.65
2019-03-27T00:27:45.955Z,4.40
2019-03-27T00:29:21.293Z,7.15
2019-03-27T00:30:56.174Z,6.62
2019-03-27T00:32:31.341Z,5.42
2019-03-27T00:34:06.225Z,6.67
2019-03-27T00:35:41.128Z,8.63
2019-03-27T00:37:16.017Z,9.20
2019-03-27T00:38:50.927Z,7.45
2019-03-27T00:40:26.380Z,6.83
2019-03-27T00:42:01.260Z,5.67
2019-03-27T00:43:36.442Z,7.00
2019-03-27T00:45:25.517Z,7.58
2019-03-27T00:46:48.542Z,8.95
2019-03-27T00:48:23.425Z,9.73
2019-03-27T00:49:58.310Z,4.42
2019-03-27T00:51:33.192Z,4.67
2019-03-27T00:53:08.118Z,8.03
2019-03-27T00:54:43.576Z,5.03
2019-03-27T00:56:18.461Z,5.40
2019-03-27T00:57:53.347Z,6.25
2019-03-27T00:59:28.257Z,6.30
2019-03-27T01:01:15.863Z,9.88
2019-03-27T01:02:51.113Z,9.70
2019-03-27T01:04:26.368Z,8.15
2019-03-27T01:06:01.614Z,6.17
2019-03-27T01:07:36.500Z,4.45
2019-03-27T01:09:11.403Z,6.60
2019-03-27T01:10:46.301Z,5.80
2019-03-27T01:12:21.300Z,5.28
2019-03-27T01:13:56.191Z,8.08
2019-03-27T01:15:39.731Z,9.50
2019-03-27T01:17:07.693Z,6.12
2019-03-27T01:18:42.777Z,8.70
2019-03-27T01:20:17.669Z,7.58
2019-03-27T01:21:52.575Z,6.67
2019-03-27T01:23:27.796Z,7.08
2019-03-27T01:25:02.712Z,8.05
2019-03-27T01:26:37.636Z,8.10
2019-03-27T01:28:12.894Z,7.83
2019-03-27T01:29:47.797Z,8.30
2019-03-27T01:31:22.713Z,3.55
2019-03-27T01:32:57.605Z,8.43
2019-03-27T01:34:32.509Z,6.97
2019-03-27T01:36:07.415Z,5.92
2019-03-27T01:37:42.673Z,5.62
2019-03-27T01:39:17.560Z,6.80
2019-03-27T01:40:52.455Z,5.50
2019-03-27T01:42:27.412Z,7.03
2019-03-27T01:44:02.967Z,4.95
2019-03-27T01:45:38.199Z,6.10
2019-03-27T01:47:13.361Z,7.37
2019-03-27T01:48:48.242Z,3.77
2019-03-27T01:50:23.588Z,5.20
2019-03-27T01:51:58.821Z,6.67
2019-03-27T01:53:33.722Z,8.53
2019-03-27T01:55:09.077Z,6.72
2019-03-27T01:56:43.998Z,7.05
2019-03-27T01:58:19.445Z,4.70
2019-03-27T01:59:54.673Z,7.50
2019-03-27T02:01:29.562Z,7.25
2019-03-27T02:03:04.627Z,6.65
2019-03-27T02:04:39.863Z,6.70
2019-03-27T02:06:15.092Z,6.20
2019-03-27T02:07:49.990Z,10.65
2019-03-27T02:09:24.883Z,8.23
2019-03-27T02:10:59.776Z,7.78
2019-03-27T02:12:34.698Z,7.45
2019-03-27T02:14:09.769Z,6.25
2019-03-27T02:15:44.669Z,7.58
2019-03-27T02:17:20.287Z,6.60
2019-03-27T02:18:55.197Z,9.60
2019-03-27T02:20:30.085Z,6.90
2019-03-27T02:22:04.981Z,6.75
2019-03-27T02:23:40.295Z,7.37
2019-03-27T02:25:15.196Z,7.28
2019-03-27T02:26:50.157Z,9.38
2019-03-27T02:28:25.053Z,7.40
2019-03-27T02:29:59.961Z,6.60
2019-03-27T02:31:34.843Z,7.92
2019-03-27T02:33:09.759Z,7.05
2019-03-27T02:34:45.030Z,10.03
2019-03-27T02:36:19.938Z,6.12
2019-03-27T02:37:54.822Z,5.97
2019-03-27T02:39:29.723Z,7.92
2019-03-27T02:41:04.721Z,6.83
2019-03-27T02:42:39.610Z,5.30
2019-03-27T02:44:14.605Z,7.08
2019-03-27T02:45:49.769Z,6.25
2019-03-27T02:47:24.657Z,6.25
2019-03-27T02:48:59.855Z,7.78
2019-03-27T02:50:34.848Z,8.83
2019-03-27T02:52:10.096Z,7.62
2019-03-27T02:53:45.058Z,6.60
2019-03-27T02:55:20.238Z,7.87
2019-03-27T02:56:55.498Z,8.95
2019-03-27T02:58:30.437Z,7.70
2019-03-27T03:00:06.761Z,7.85
2019-03-27T03:01:41.651Z,8.70
2019-03-27T03:03:16.545Z,8.50
2019-03-27T03:04:52.052Z,6.87
2019-03-27T03:06:26.958Z,9.53
2019-03-27T03:08:01.858Z,9.90
2019-03-27T03:09:36.750Z,11.08
2019-03-27T03:11:11.656Z,6.50
2019-03-27T03:12:46.702Z,6.45
2019-03-27T03:14:21.612Z,5.90
2019-03-27T03:15:56.508Z,6.65
2019-03-27T03:17:31.654Z,6.90
2019-03-27T03:19:06.559Z,8.63
2019-03-27T03:20:41.757Z,7.45
2019-03-27T03:22:17.149Z,7.50
2019-03-27T03:23:52.044Z,5.55
2019-03-27T03:25:26.965Z,8.88
2019-03-27T03:27:02.229Z,5.80
2019-03-27T03:28:37.118Z,6.40
2019-03-27T03:30:12.709Z,8.95
2019-03-27T03:31:48.241Z,11.15
2019-03-27T03:33:23.578Z,8.60
2019-03-27T03:34:58.807Z,9.53
2019-03-27T03:36:33.699Z,9.93
2019-03-27T03:38:08.688Z,6.87
2019-03-27T03:39:43.595Z,12.60
2019-03-27T03:41:18.480Z,9.03
2019-03-27T03:42:53.383Z,7.17
2019-03-27T03:44:28.492Z,9.28
2019-03-27T03:46:03.608Z,8.28
2019-03-27T03:47:38.870Z,9.68
2019-03-27T03:49:13.766Z,8.73
2019-03-27T03:50:48.778Z,11.35
2019-03-27T03:52:24.890Z,8.88
2019-03-27T03:53:59.948Z,9.38
2019-03-27T03:55:36.805Z,12.05
2019-03-27T03:57:12.375Z,11.57
2019-03-27T03:58:48.237Z,9.05
2019-03-27T04:00:23.410Z,7.22
2019-03-27T04:02:01.507Z,10.80
2019-03-27T04:03:36.797Z,8.30
2019-03-27T04:05:14.950Z,10.48
2019-03-27T04:06:52.851Z,8.80
2019-03-27T04:08:27.817Z,9.38
2019-03-27T04:10:02.822Z,10.32
2019-03-27T04:11:38.111Z,10.82
2019-03-27T04:13:13.313Z,11.00
2019-03-27T04:14:48.285Z,13.53
2019-03-27T04:16:23.189Z,11.65
2019-03-27T04:17:58.555Z,8.28
2019-03-27T04:19:33.535Z,10.30
2019-03-27T04:21:08.548Z,10.48
2019-03-27T04:22:43.509Z,9.05
2019-03-27T04:24:18.553Z,8.80
2019-03-27T04:26:08.796Z,11.25
2019-03-27T04:27:30.463Z,9.78
2019-03-27T04:29:05.631Z,9.30
2019-03-27T04:30:40.548Z,12.85
2019-03-27T04:32:15.515Z,12.10
2019-03-27T04:33:50.783Z,11.60
2019-03-27T04:35:25.955Z,9.90
2019-03-27T04:37:01.070Z,10.00
2019-03-27T04:38:35.960Z,9.13
2019-03-27T04:40:11.025Z,10.68
2019-03-27T04:41:46.215Z,9.93
2019-03-27T04:43:21.159Z,10.85
2019-03-27T04:44:56.138Z,11.25
2019-03-27T04:46:31.031Z,11.28
2019-03-27T04:48:06.006Z,12.47
2019-03-27T04:49:41.326Z,11.28
2019-03-27T04:51:16.308Z,11.48
2019-03-27T04:52:51.365Z,10.13
2019-03-27T04:54:27.111Z,10.70
2019-03-27T04:56:02.268Z,12.30
2019-03-27T04:57:37.469Z,12.63
2019-03-27T04:59:12.449Z,12.88
2019-03-27T05:00:47.457Z,11.15
2019-03-27T05:02:22.815Z,12.28
2019-03-27T05:03:57.898Z,11.25
2019-03-27T05:05:32.785Z,12.37
2019-03-27T05:07:07.685Z,14.00
2019-03-27T05:08:42.974Z,11.12
2019-03-27T05:10:17.927Z,12.63
2019-03-27T05:11:52.846Z,9.83
2019-03-27T05:13:27.773Z,9.98
2019-03-27T05:15:02.698Z,10.05
2019-03-27T05:16:37.610Z,9.55
2019-03-27T05:18:12.519Z,8.33
2019-03-27T05:19:47.754Z,9.48
2019-03-27T05:21:22.909Z,10.90
2019-03-27T05:22:57.846Z,9.88
2019-03-27T05:24:32.767Z,14.83
2019-03-27T05:26:07.814Z,8.75
2019-03-27T05:27:42.715Z,12.07
2019-03-27T05:29:17.640Z,10.23
2019-03-27T05:30:52.955Z,11.48
2019-03-27T05:32:28.274Z,8.63
2019-03-27T05:34:03.178Z,9.88
2019-03-27T05:35:38.156Z,11.73
2019-03-27T05:37:13.046Z,10.63
2019-03-27T05:38:48.219Z,14.50
2019-03-27T05:40:23.526Z,15.32
2019-03-27T05:41:58.871Z,13.60
2019-03-27T05:43:33.830Z,12.60
2019-03-27T05:45:09.246Z,12.33
2019-03-27T05:46:44.153Z,14.50
2019-03-27T05:48:19.037Z,15.90
2019-03-27T05:49:54.194Z,14.63
2019-03-27T05:51:29.121Z,14.35
2019-03-27T05:53:04.097Z,13.60
2019-03-27T05:54:39.022Z,11.20
2019-03-27T05:56:14.195Z,11.95
2019-03-27T05:57:49.196Z,10.78
2019-03-27T05:59:24.109Z,12.05
2019-03-27T06:00:59.521Z,13.65
2019-03-27T06:02:34.466Z,11.73
2019-03-27T06:04:09.407Z,13.15
2019-03-27T06:05:44.307Z,13.55
2019-03-27T06:07:19.495Z,14.23
2019-03-27T06:08:54.470Z,12.73
2019-03-27T06:10:29.368Z,14.00
2019-03-27T06:12:04.353Z,14.83
2019-03-27T06:13:39.303Z,17.60
2019-03-27T06:15:14.383Z,14.43
2019-03-27T06:16:49.299Z,15.55
2019-03-27T06:18:24.303Z,15.55
2019-03-27T06:19:59.278Z,15.13
2019-03-27T06:21:34.939Z,13.93
2019-03-27T06:23:10.138Z,17.02
2019-03-27T06:24:45.789Z,16.85
2019-03-27T06:26:20.767Z,13.48
2019-03-27T06:27:56.411Z,14.47
2019-03-27T06:29:32.356Z,14.35
2019-03-27T06:31:07.446Z,15.08
2019-03-27T06:32:42.557Z,14.53
2019-03-27T06:34:17.581Z,14.80
2019-03-27T06:35:52.807Z,13.55
2019-03-27T06:37:27.734Z,15.95
2019-03-27T06:39:02.705Z,15.35
2019-03-27T06:40:39.748Z,13.28
2019-03-27T06:42:14.258Z,18.37
2019-03-27T06:43:49.819Z,15.30
2019-03-27T06:45:25.112Z,15.63
2019-03-27T06:47:00.343Z,15.08
2019-03-27T06:48:35.257Z,14.07
2019-03-27T06:50:10.450Z,13.25
2019-03-27T06:51:45.414Z,14.38
2019-03-27T06:53:20.686Z,14.20
2019-03-27T06:54:55.750Z,14.55
2019-03-27T06:56:30.695Z,14.93
2019-03-27T06:58:05.785Z,16.65
2019-03-27T06:59:40.704Z,13.72
2019-03-27T07:01:15.630Z,13.58
2019-03-27T07:02:50.637Z,15.05
2019-03-27T07:04:25.964Z,16.75
2019-03-27T07:06:01.161Z,16.37
2019-03-27T07:07:36.097Z,14.75
2019-03-27T07:09:11.278Z,14.10
2019-03-27T07:10:46.490Z,14.35
2019-03-27T07:12:21.727Z,14.43
2019-03-27T07:13:56.873Z,13.30
2019-03-27T07:15:35.455Z,13.13
2019-03-27T07:17:10.699Z,9.90
2019-03-27T07:18:45.598Z,14.47
2019-03-27T07:20:20.523Z,13.48
2019-03-27T07:21:55.519Z,15.58
2019-03-27T07:23:30.498Z,11.73
2019-03-27T07:25:07.024Z,13.93
2019-03-27T07:26:42.107Z,12.58
2019-03-27T07:28:17.030Z,13.00
2019-03-27T07:29:52.078Z,14.20
2019-03-27T07:31:27.005Z,13.25
2019-03-27T07:33:01.938Z,14.38
2019-03-27T07:34:36.859Z,13.78
2019-03-27T07:36:12.610Z,12.93
2019-03-27T07:37:47.719Z,15.08
2019-03-27T07:39:22.746Z,13.10
2019-03-27T07:40:57.771Z,14.98
2019-03-27T07:42:34.051Z,13.90
2019-03-27T07:44:09.982Z,15.18
2019-03-27T07:45:45.666Z,14.85
2019-03-27T07:47:20.716Z,13.80
2019-03-27T07:48:55.936Z,15.93
2019-03-27T07:50:30.913Z,13.08
2019-03-27T07:52:06.142Z,12.40
2019-03-27T07:53:41.165Z,11.45
2019-03-27T07:55:19.690Z,15.88
2019-03-27T07:56:53.379Z,12.58
2019-03-27T07:58:28.657Z,10.43
2019-03-27T08:00:04.526Z,14.80
2019-03-27T08:01:39.481Z,11.03
2019-03-27T08:03:14.389Z,9.05
2019-03-27T08:04:49.306Z,12.85
2019-03-27T08:06:24.258Z,9.85
2019-03-27T08:07:59.309Z,9.35
2019-03-27T08:09:34.312Z,11.05
2019-03-27T08:11:09.337Z,10.45
2019-03-27T08:12:44.269Z,6.67
2019-03-27T08:14:19.453Z,11.15
2019-03-27T08:15:54.386Z,9.53
2019-03-27T08:17:29.353Z,9.28
2019-03-27T08:19:07.675Z,7.37
2019-03-27T08:20:41.138Z,7.30
2019-03-27T08:22:16.049Z,12.23
2019-03-27T08:23:51.002Z,12.68
2019-03-27T08:25:26.166Z,11.80
2019-03-27T08:27:01.156Z,10.72
2019-03-27T08:28:36.191Z,12.03
2019-03-27T08:30:12.433Z,13.95
2019-03-27T08:31:47.383Z,11.65
2019-03-27T08:33:22.962Z,13.65
2019-03-27T08:34:58.561Z,11.80
2019-03-27T08:36:34.446Z,11.60
2019-03-27T08:38:10.313Z,9.03
2019-03-27T08:39:45.950Z,11.00
2019-03-27T08:41:21.645Z,11.88
2019-03-27T08:42:57.767Z,12.68
2019-03-27T08:44:32.775Z,13.78
2019-03-27T08:46:07.864Z,9.88
2019-03-27T08:47:42.867Z,11.00
2019-03-27T08:49:22.308Z,11.12
2019-03-27T08:50:54.803Z,9.30
2019-03-27T08:52:29.978Z,10.30
2019-03-27T08:54:04.984Z,13.60
2019-03-27T08:55:39.989Z,9.53
2019-03-27T08:57:15.373Z,10.08
2019-03-27T08:58:50.290Z,11.33
2019-03-27T09:00:46.010Z,11.33
2019-03-27T09:02:20.978Z,13.97
2019-03-27T09:03:55.913Z,15.33
2019-03-27T09:05:31.187Z,11.40
2019-03-27T09:07:06.722Z,7.23
2019-03-27T09:08:41.682Z,12.50
2019-03-27T09:10:17.093Z,13.03
2019-03-27T09:11:52.078Z,9.50
2019-03-27T09:13:27.306Z,12.37
2019-03-27T09:15:02.390Z,11.23
2019-03-27T09:16:37.719Z,13.20
2019-03-27T09:18:12.716Z,11.13
2019-03-27T09:19:47.975Z,13.80
2019-03-27T09:21:23.294Z,12.13
2019-03-27T09:22:58.209Z,12.70
2019-03-27T09:24:33.112Z,11.30
2019-03-27T09:26:08.020Z,13.97
2019-03-27T09:27:42.963Z,12.93
2019-03-27T09:29:18.801Z,12.57
2019-03-27T09:30:54.784Z,11.38
2019-03-27T09:32:30.806Z,15.50
2019-03-27T09:34:06.512Z,12.90
2019-03-27T09:35:42.143Z,12.97
2019-03-27T09:37:17.784Z,13.17
2019-03-27T09:38:53.972Z,11.67
2019-03-27T09:40:29.967Z,11.68
2019-03-27T09:42:05.734Z,10.88
2019-03-27T09:43:41.596Z,11.90
2019-03-27T09:45:18.121Z,16.37
2019-03-27T09:46:54.187Z,15.77
2019-03-27T09:48:29.803Z,12.13
2019-03-27T09:50:06.948Z,10.30
2019-03-27T09:51:43.085Z,11.07
2019-03-27T09:53:19.195Z,11.40
2019-03-27T09:54:54.879Z,13.37
2019-03-27T09:56:30.500Z,10.83
2019-03-27T09:58:06.211Z,10.27
2019-03-27T09:59:42.166Z,13.33
2019-03-27T10:01:18.027Z,12.17
2019-03-27T10:02:57.173Z,12.50
2019-03-27T10:04:31.661Z,8.73
2019-03-27T10:06:07.793Z,14.67
2019-03-27T10:07:43.789Z,10.60
2019-03-27T10:09:19.392Z,10.97
2019-03-27T10:10:55.111Z,9.90
2019-03-27T10:12:30.724Z,11.13
2019-03-27T10:14:06.498Z,14.57
2019-03-27T10:15:42.265Z,12.37
2019-03-27T10:17:17.889Z,10.67
2019-03-27T10:18:53.522Z,10.48
2019-03-27T10:20:29.596Z,10.20
2019-03-27T10:22:05.379Z,9.08
2019-03-27T10:23:41.097Z,10.55
2019-03-27T10:25:16.888Z,9.15
2019-03-27T10:26:52.630Z,12.35
2019-03-27T10:28:28.510Z,11.80
2019-03-27T10:30:04.596Z,10.68
2019-03-27T10:31:40.585Z,12.50
2019-03-27T10:33:16.232Z,9.93
2019-03-27T10:34:51.923Z,6.70
2019-03-27T10:36:27.580Z,8.40
2019-03-27T10:38:03.515Z,10.90
2019-03-27T10:39:39.225Z,9.70
2019-03-27T10:41:15.115Z,9.50
2019-03-27T10:42:51.006Z,15.40
2019-03-27T10:44:26.615Z,10.93
2019-03-27T10:46:02.536Z,9.97
2019-03-27T10:47:38.184Z,12.37
2019-03-27T10:49:14.147Z,10.23
2019-03-27T10:50:50.282Z,11.03
2019-03-27T10:52:26.540Z,9.50
2019-03-27T10:54:02.222Z,11.33
2019-03-27T10:55:38.262Z,9.60
2019-03-27T10:57:13.293Z,9.37
2019-03-27T10:58:48.512Z,6.17
2019-03-27T11:00:23.430Z,9.30
2019-03-27T11:01:58.349Z,8.63
2019-03-27T11:03:33.366Z,6.10
2019-03-27T11:05:08.958Z,5.47
2019-03-27T11:06:44.916Z,7.27
2019-03-27T11:08:20.394Z,7.90
2019-03-27T11:09:55.533Z,8.77
2019-03-27T11:11:30.690Z,8.60
2019-03-27T11:13:05.630Z,9.57
2019-03-27T11:14:40.926Z,10.40
2019-03-27T11:16:15.937Z,9.80
2019-03-27T11:17:50.862Z,9.80
2019-03-27T11:19:26.088Z,11.47
2019-03-27T11:21:01.264Z,7.47
2019-03-27T11:22:36.233Z,9.47
2019-03-27T11:24:11.178Z,10.47
2019-03-27T11:25:46.074Z,8.50
2019-03-27T11:27:21.244Z,7.00
2019-03-27T11:28:56.219Z,9.00
2019-03-27T11:30:39.536Z,9.37
2019-03-27T11:32:14.510Z,9.30
2019-03-27T11:33:49.418Z,10.07
2019-03-27T11:35:24.599Z,8.47
2019-03-27T11:36:59.542Z,9.93
2019-03-27T11:38:37.397Z,10.97
2019-03-27T11:40:11.390Z,10.50
2019-03-27T11:41:46.301Z,9.07
2019-03-27T11:43:21.649Z,10.03
2019-03-27T11:44:57.059Z,9.30
2019-03-27T11:46:32.342Z,10.00
2019-03-27T11:48:08.273Z,8.77
2019-03-27T11:49:43.875Z,8.63
2019-03-27T11:51:18.833Z,11.10
2019-03-27T11:52:54.144Z,8.53
2019-03-27T11:54:29.326Z,10.43
2019-03-27T11:56:04.738Z,10.27
2019-03-27T11:57:39.907Z,9.93
2019-03-27T11:59:15.053Z,6.83
2019-03-27T12:00:54.949Z,6.47
2019-03-27T12:02:27.129Z,7.93
2019-03-27T12:04:02.129Z,9.50
2019-03-27T12:05:37.366Z,8.10
2019-03-27T12:07:15.357Z,6.23
2019-03-27T12:08:50.928Z,6.80
2019-03-27T12:10:26.424Z,9.43
2019-03-27T12:12:01.365Z,6.37
2019-03-27T12:13:36.374Z,6.27
2019-03-27T12:15:11.762Z,8.03
2019-03-27T12:16:49.832Z,8.87
2019-03-27T12:18:23.613Z,10.63
2019-03-27T12:19:59.018Z,11.43
2019-03-27T12:21:34.198Z,7.10
2019-03-27T12:23:09.354Z,6.30
2019-03-27T12:24:44.354Z,9.70
2019-03-27T12:26:19.263Z,11.27
2019-03-27T12:27:54.226Z,8.30
2019-03-27T12:29:29.442Z,9.07
2019-03-27T12:31:04.874Z,9.60
2019-03-27T12:32:40.041Z,9.37
2019-03-27T12:34:15.213Z,5.13
2019-03-27T12:35:50.426Z,6.97
2019-03-27T12:37:25.381Z,10.63
2019-03-27T12:39:00.529Z,10.80
2019-03-27T12:40:35.950Z,10.90
2019-03-27T12:42:10.894Z,9.37
2019-03-27T12:43:46.055Z,13.53
2019-03-27T12:45:22.371Z,11.50
2019-03-27T12:46:57.426Z,8.47
2019-03-27T12:48:32.920Z,10.80
2019-03-27T12:50:08.360Z,11.97
2019-03-27T12:51:43.313Z,10.73
2019-03-27T12:53:18.345Z,11.23
2019-03-27T12:54:53.241Z,11.43
2019-03-27T12:56:28.156Z,9.73
2019-03-27T12:58:03.133Z,10.80
2019-03-27T12:59:38.326Z,9.87
2019-03-27T13:01:13.479Z,14.27
2019-03-27T13:02:48.391Z,8.30
2019-03-27T13:04:23.378Z,12.80
2019-03-27T13:06:00.048Z,9.83
2019-03-27T13:07:49.096Z,10.53
2019-03-27T13:09:14.044Z,8.57
2019-03-27T13:10:49.276Z,12.13
2019-03-27T13:12:24.197Z,11.67
2019-03-27T13:13:59.107Z,11.53
2019-03-27T13:15:34.316Z,10.77
2019-03-27T13:17:09.312Z,15.97
2019-03-27T13:18:44.229Z,15.10
2019-03-27T13:20:20.270Z,12.53
2019-03-27T13:21:55.446Z,13.50
2019-03-27T13:23:30.411Z,10.23
2019-03-27T13:25:05.933Z,10.20
2019-03-27T13:26:40.858Z,10.53
2019-03-27T13:28:15.811Z,13.20
2019-03-27T13:29:50.960Z,12.53
2019-03-27T13:31:26.101Z,9.33
2019-03-27T13:33:01.025Z,9.57
2019-03-27T13:34:36.619Z,10.57
2019-03-27T13:36:11.527Z,10.87
2019-03-27T13:37:46.622Z,10.53
2019-03-27T13:39:21.529Z,10.40
2019-03-27T13:40:56.930Z,11.90
2019-03-27T13:42:31.841Z,11.23
2019-03-27T13:44:06.837Z,12.33
2019-03-27T13:45:41.745Z,10.70
2019-03-27T13:47:16.925Z,8.23
2019-03-27T13:48:52.002Z,12.53
2019-03-27T13:50:27.011Z,9.50
2019-03-27T13:52:02.054Z,8.30
2019-03-27T13:53:36.978Z,10.60
2019-03-27T13:55:12.847Z,11.87
2019-03-27T13:56:48.093Z,9.20
2019-03-27T13:58:23.099Z,9.80
2019-03-27T13:59:58.109Z,11.80
2019-03-27T14:01:33.202Z,10.63
2019-03-27T14:05:25.802Z,11.37
2019-03-27T14:07:00.727Z,12.10
2019-03-27T14:08:35.921Z,12.17
2019-03-27T14:10:11.319Z,12.80
2019-03-27T14:11:46.318Z,12.17
2019-03-27T14:13:22.562Z,12.53
2019-03-27T14:14:57.527Z,12.30
2019-03-27T14:16:32.899Z,15.17
2019-03-27T14:18:08.163Z,12.90
2019-03-27T14:19:43.517Z,14.67
2019-03-27T14:21:18.703Z,11.47
2019-03-27T14:22:54.218Z,12.83
2019-03-27T14:24:29.117Z,12.20
2019-03-27T14:26:04.377Z,13.80
2019-03-27T14:27:39.475Z,11.33
2019-03-27T14:29:14.373Z,13.23
2019-03-27T14:30:58.918Z,13.27
2019-03-27T14:32:33.894Z,12.30
2019-03-27T14:34:08.795Z,12.70
2019-03-27T14:35:43.706Z,13.27
2019-03-27T14:37:18.643Z,14.63
2019-03-27T14:38:53.577Z,9.70
2019-03-27T14:40:28.493Z,12.03
2019-03-27T14:42:03.413Z,12.00
2019-03-27T14:43:38.561Z,13.80
2019-03-27T14:45:13.758Z,11.83
2019-03-27T14:46:48.687Z,9.43
2019-03-27T14:48:23.637Z,11.07
2019-03-27T14:49:59.082Z,11.37
2019-03-27T14:51:34.470Z,13.37
2019-03-27T14:53:09.765Z,11.50
2019-03-27T14:54:44.975Z,11.23
2019-03-27T14:56:19.893Z,9.97
2019-03-27T14:57:58.382Z,15.87
2019-03-27T14:59:34.653Z,10.50
2019-03-27T15:01:09.724Z,13.43
2019-03-27T15:02:44.624Z,10.70
2019-03-27T15:04:19.801Z,10.47
2019-03-27T15:05:54.729Z,15.33
2019-03-27T15:07:30.006Z,12.20
2019-03-27T15:09:06.528Z,15.17
2019-03-27T15:10:42.095Z,15.03
2019-03-27T15:12:17.177Z,13.57
2019-03-27T15:13:52.176Z,15.37
2019-03-27T15:15:27.444Z,15.20
2019-03-27T15:17:02.336Z,12.90
2019-03-27T15:18:37.499Z,15.30
2019-03-27T15:20:13.176Z,16.77
2019-03-27T15:21:48.134Z,15.87
2019-03-27T15:23:23.038Z,19.30
2019-03-27T15:24:58.196Z,16.60
2019-03-27T15:26:33.909Z,15.67
2019-03-27T15:28:08.952Z,17.23
2019-03-27T15:29:44.113Z,18.97
2019-03-27T15:31:20.760Z,15.97
2019-03-27T15:32:56.479Z,16.77
2019-03-27T15:34:31.667Z,16.93
2019-03-27T15:36:06.854Z,17.67
2019-03-27T15:37:41.860Z,16.63
2019-03-27T15:39:19.649Z,16.00
2019-03-27T15:40:54.576Z,15.87
2019-03-27T15:42:29.747Z,15.77
2019-03-27T15:44:04.767Z,17.60
2019-03-27T15:45:40.079Z,16.87
2019-03-27T15:47:17.785Z,17.53
2019-03-27T15:48:51.858Z,15.27
2019-03-27T15:50:27.110Z,18.27
2019-03-27T15:52:02.059Z,20.23
2019-03-27T15:53:37.089Z,19.83
2019-03-27T15:55:12.224Z,17.13
2019-03-27T15:56:47.150Z,16.23
2019-03-27T15:58:22.102Z,17.10
2019-03-27T15:59:57.101Z,20.07
2019-03-27T16:01:32.205Z,18.70
2019-03-27T16:03:07.565Z,17.80
2019-03-27T16:04:42.499Z,17.77
2019-03-27T16:06:17.494Z,16.97
2019-03-27T16:07:52.662Z,16.27
2019-03-27T16:09:28.473Z,17.63
2019-03-27T16:11:03.626Z,18.48
2019-03-27T16:12:38.682Z,17.03
2019-03-27T16:14:13.677Z,16.87
2019-03-27T16:15:48.621Z,16.80
2019-03-27T16:17:23.536Z,14.17
2019-03-27T16:18:58.938Z,18.67
2019-03-27T16:20:33.997Z,15.73
2019-03-27T16:22:09.330Z,17.87
2019-03-27T16:23:44.477Z,14.93
2019-03-27T16:25:19.490Z,17.47
2019-03-27T16:27:04.426Z,19.70
2019-03-27T16:28:31.605Z,19.90
2019-03-27T16:30:06.880Z,18.55
2019-03-27T16:31:41.778Z,18.53
2019-03-27T16:33:17.163Z,21.63
2019-03-27T16:34:52.550Z,19.40
2019-03-27T16:36:27.719Z,19.17
2019-03-27T16:38:02.790Z,20.27
2019-03-27T16:39:37.716Z,21.23
2019-03-27T16:41:12.735Z,18.10
2019-03-27T16:42:47.669Z,20.60
2019-03-27T16:44:22.586Z,17.98
2019-03-27T16:45:57.527Z,19.52
2019-03-27T16:47:32.566Z,18.67
2019-03-27T16:49:07.598Z,18.55
2019-03-27T16:50:42.610Z,20.47
2019-03-27T16:52:17.556Z,19.77
2019-03-27T16:53:52.954Z,16.13
2019-03-27T16:55:28.184Z,15.70
2019-03-27T16:57:03.105Z,20.20
2019-03-27T16:58:38.509Z,15.63
2019-03-27T17:00:13.510Z,20.82
2019-03-27T17:01:48.412Z,15.80
2019-03-27T17:03:23.459Z,17.10
2019-03-27T17:04:59.049Z,17.27
2019-03-27T17:06:33.967Z,17.90
2019-03-27T17:08:08.912Z,19.90
2019-03-27T17:09:44.110Z,19.65
2019-03-27T17:11:19.114Z,18.42
2019-03-27T17:12:54.116Z,19.92
2019-03-27T17:14:29.065Z,19.52
2019-03-27T17:16:04.077Z,18.02
2019-03-27T17:17:39.478Z,15.43
2019-03-27T17:19:14.414Z,19.35
2019-03-27T17:20:49.383Z,19.43
2019-03-27T17:22:24.303Z,16.32
2019-03-27T17:23:59.449Z,19.12
2019-03-27T17:25:34.509Z,17.23
2019-03-27T17:27:09.417Z,19.10
2019-03-27T17:28:44.355Z,17.02
2019-03-27T17:30:19.902Z,18.12
2019-03-27T17:31:54.967Z,15.85
2019-03-27T17:33:29.918Z,20.63
2019-03-27T17:35:05.134Z,16.03
2019-03-27T17:36:40.305Z,19.93
2019-03-27T17:38:15.205Z,17.20
2019-03-27T17:39:50.365Z,17.87
2019-03-27T17:41:28.183Z,15.85
2019-03-27T17:43:01.933Z,18.67
2019-03-27T17:44:37.313Z,15.13
2019-03-27T17:46:12.643Z,16.80
2019-03-27T17:47:47.878Z,19.23
2019-03-27T17:49:22.808Z,16.57
2019-03-27T17:50:57.866Z,15.98
2019-03-27T17:52:33.114Z,15.68
2019-03-27T17:54:19.905Z,17.77
2019-03-27T17:55:45.019Z,15.48
2019-03-27T17:57:20.046Z,15.43
2019-03-27T17:58:55.287Z,14.15
2019-03-27T18:00:42.593Z,11.93
2019-03-27T18:02:17.517Z,14.85
2019-03-27T18:03:52.675Z,15.32
2019-03-27T18:05:27.846Z,15.90
2019-03-27T18:07:03.274Z,15.63
2019-03-27T18:08:38.198Z,17.60
2019-03-27T18:10:13.285Z,14.95
2019-03-27T18:11:48.225Z,17.23
2019-03-27T18:13:23.162Z,17.10
2019-03-27T18:14:58.669Z,15.18
2019-03-27T18:16:33.947Z,15.32
2019-03-27T18:18:09.283Z,15.63
2019-03-27T18:19:44.270Z,15.20
2019-03-27T18:21:21.277Z,15.60
2019-03-27T18:22:56.514Z,17.52
2019-03-27T18:24:31.421Z,21.70
2019-03-27T18:26:06.673Z,19.52
2019-03-27T18:27:41.608Z,19.37
2019-03-27T18:29:16.771Z,19.50
2019-03-27T18:30:51.681Z,19.17
2019-03-27T18:32:26.593Z,16.05
2019-03-27T18:34:01.537Z,17.85
2019-03-27T18:35:36.573Z,20.37
2019-03-27T18:37:11.561Z,16.95
2019-03-27T18:38:46.519Z,19.20
2019-03-27T18:40:21.497Z,20.08
2019-03-27T18:41:56.405Z,18.55
2019-03-27T18:43:31.313Z,18.85
2019-03-27T18:45:07.448Z,18.32
2019-03-27T18:46:42.349Z,18.90
2019-03-27T18:48:17.385Z,18.35
2019-03-27T18:49:52.880Z,17.25
2019-03-27T18:51:28.146Z,18.60
2019-03-27T18:53:03.359Z,18.30
2019-03-27T18:54:38.553Z,15.88
2019-03-27T18:56:13.541Z,16.42
2019-03-27T18:57:59.468Z,14.53
2019-03-27T18:59:25.324Z,15.30
2019-03-27T19:01:00.874Z,13.10
2019-03-27T19:02:36.108Z,15.88
2019-03-27T19:04:11.021Z,15.38
2019-03-27T19:05:46.265Z,17.70
2019-03-27T19:07:21.597Z,17.52
2019-03-27T19:08:56.536Z,15.90
2019-03-27T19:10:31.449Z,17.82
2019-03-27T19:12:06.378Z,16.25
2019-03-27T19:13:41.329Z,16.42
2019-03-27T19:15:16.734Z,15.30
2019-03-27T19:16:51.725Z,16.35
2019-03-27T19:18:26.651Z,14.75
2019-03-27T19:20:01.901Z,14.13
2019-03-27T19:21:36.877Z,13.20
2019-03-27T19:23:11.780Z,13.13
2019-03-27T19:24:46.686Z,15.25
2019-03-27T19:26:21.707Z,16.45
2019-03-27T19:27:56.619Z,16.23
2019-03-27T19:29:32.078Z,15.93
2019-03-27T19:31:07.081Z,16.90
2019-03-27T19:32:42.050Z,12.95
2019-03-27T19:34:17.033Z,17.30
2019-03-27T19:35:52.022Z,16.30
2019-03-27T19:37:27.489Z,13.28
2019-03-27T19:39:02.442Z,15.83
2019-03-27T19:40:37.497Z,13.88
2019-03-27T19:42:12.406Z,15.38
2019-03-27T19:43:47.302Z,12.82
2019-03-27T19:45:22.636Z,14.85
2019-03-27T19:46:57.834Z,13.48
2019-03-27T19:48:32.757Z,14.73
2019-03-27T19:50:08.104Z,14.43
2019-03-27T19:51:43.302Z,15.18
2019-03-27T19:53:18.205Z,14.95
2019-03-27T19:54:53.105Z,14.95
2019-03-27T19:56:28.017Z,13.25
2019-03-27T19:58:02.945Z,15.00
2019-03-27T19:59:38.171Z,13.90
2019-03-27T20:01:13.922Z,10.90
2019-03-27T20:02:48.857Z,13.88
2019-03-27T20:04:23.767Z,14.38
2019-03-27T20:05:58.685Z,13.55
2019-03-27T20:07:36.111Z,12.15
2019-03-27T20:09:10.332Z,16.23
2019-03-27T20:10:45.256Z,12.45
2019-03-27T20:12:20.463Z,13.03
2019-03-27T20:13:55.373Z,13.65
2019-03-27T20:15:30.272Z,12.43
2019-03-27T20:17:05.442Z,12.07
2019-03-27T20:18:40.750Z,12.18
2019-03-27T20:20:15.988Z,11.55
2019-03-27T20:21:51.603Z,14.13
2019-03-27T20:23:26.534Z,11.60
2019-03-27T20:25:01.469Z,11.70
2019-03-27T20:26:36.378Z,12.43
2019-03-27T20:28:11.282Z,12.20
2019-03-27T20:29:46.714Z,12.65
2019-03-27T20:31:21.994Z,14.03
2019-03-27T20:32:56.977Z,13.65
2019-03-27T20:34:31.911Z,15.43
2019-03-27T20:36:06.902Z,10.68
2019-03-27T20:37:41.813Z,12.82
2019-03-27T20:39:16.718Z,10.95
2019-03-27T20:40:51.758Z,12.95
2019-03-27T20:42:26.704Z,12.73